Time;durP1;ratioP1;P1;durP2;ratioP2;P2;SDS_P1;SDS_P2;PMS_P1;PMS_P2;Temp;Humidity;BMP_temperature;BMP_pressure;BME280_temperature;BME280_humidity;BME280_pressure;Samples;Min_cycle;Max_cycle;Signal;HPM_P1;HPM_P2
2023/06/01 00:01:27;;;;;;;;;;;12.20;99.90;;;;;;5093090;28;20367;-84
2023/06/01 00:03:52;;;;;;;;;;;12.20;99.90;;;;;;5093109;28;19928;-85
2023/06/01 00:06:18;;;;;;;;;;;12.00;99.90;;;;;;5099623;28;19928;-86
2023/06/01 00:08:43;;;;;;;;;;;12.00;99.90;;;;;;5095401;28;19932;-85
2023/06/01 00:11:09;;;;;;;;;;;12.10;99.90;;;;;;5097212;28;20010;-85
2023/06/01 00:13:35;;;;;;;;;;;12.20;99.90;;;;;;5090741;28;20018;-85
2023/06/01 00:16:01;;;;;;;;;;;12.20;99.90;;;;;;5078267;28;19927;-85
2023/06/01 00:18:27;;;;;;;;;;;12.10;99.90;;;;;;5093612;28;20378;-86
2023/06/01 00:20:53;;;;;;;;;;;12.10;99.90;;;;;;5094202;28;19932;-85
2023/06/01 00:23:19;;;;;;;;;;;12.10;99.90;;;;;;5096628;28;20374;-85
2023/06/01 00:25:45;;;;;;;;;;;12.20;99.90;;;;;;5075380;28;20586;-86
2023/06/01 00:28:11;;;;;;;;;;;12.20;99.90;;;;;;5095595;28;19927;-88
2023/06/01 00:30:36;;;;;;;;;;;12.20;99.90;;;;;;5075757;28;19928;-86
2023/06/01 00:33:02;;;;;;;;;;;12.10;99.90;;;;;;5094907;28;20401;-86
2023/06/01 00:35:27;;;;;;;;;;;12.10;99.90;;;;;;5094616;28;20334;-85
2023/06/01 00:37:53;;;;;;;;;;;12.20;99.90;;;;;;5092168;28;20021;-86
2023/06/01 00:40:19;;;;;;;;;;;12.20;99.90;;;;;;5086946;28;19929;-83
2023/06/01 00:42:44;;;;;;;;;;;12.10;99.90;;;;;;5093622;28;20077;-84
2023/06/01 00:45:10;;;;;;;;;;;12.20;99.90;;;;;;5093859;28;19924;-84
2023/06/01 00:47:42;;;;;;;;;;;12.20;99.90;;;;;;5094062;28;20292;-85
2023/06/01 00:50:08;;;;;;;;;;;12.10;99.90;;;;;;5091586;28;19928;-84
2023/06/01 00:52:35;;;;;;;;;;;12.20;99.90;;;;;;5094394;28;19924;-86
2023/06/01 00:55:01;;;;;;;;;;;12.10;99.90;;;;;;5070567;28;20020;-84
2023/06/01 00:57:27;;;;;;;;;;;12.10;99.90;;;;;;5094286;28;19969;-86
2023/06/01 00:59:53;;;;;;;;;;;12.10;99.90;;;;;;5090339;28;19924;-85
2023/06/01 01:02:21;;;;;;;;;;;12.20;99.90;;;;;;5088247;28;20604;-84
2023/06/01 01:04:52;;;;;;;;;;;12.20;99.90;;;;;;5094123;28;20284;-85
2023/06/01 01:07:20;;;;;;;;;;;12.30;99.90;;;;;;5093551;28;20004;-85
2023/06/01 01:10:09;;;;;;;;;;;12.30;99.90;;;;;;5091324;28;20001;-86
2023/06/01 01:12:37;;;;;;;;;;;12.20;99.90;;;;;;5086339;28;19928;-85
2023/06/01 01:15:18;;;;;;;;;;;12.20;99.90;;;;;;5094675;28;19928;-85
2023/06/01 01:17:45;;;;;;;;;;;12.20;99.90;;;;;;5077157;28;19928;-86
2023/06/01 01:20:26;;;;;;;;;;;12.20;99.90;;;;;;5079597;28;19928;-85
2023/06/01 01:23:12;;;;;;;;;;;12.10;99.90;;;;;;5089829;28;19932;-85
2023/06/01 01:25:43;;;;;;;;;;;12.00;99.90;;;;;;5077813;28;20381;-85
2023/06/01 01:28:27;;;;;;;;;;;12.00;99.90;;;;;;5096554;28;19927;-84
2023/06/01 01:30:54;;;;;;;;;;;12.10;99.90;;;;;;5093503;28;19931;-85
2023/06/01 01:33:20;;;;;;;;;;;12.10;99.90;;;;;;5095342;28;19928;-85
2023/06/01 01:35:47;;;;;;;;;;;12.10;99.90;;;;;;5077630;28;20088;-84
2023/06/01 01:38:12;;;;;;;;;;;12.10;99.90;;;;;;5087324;28;19936;-85
2023/06/01 01:40:38;;;;;;;;;;;12.20;99.90;;;;;;5097829;28;19924;-84
2023/06/01 01:43:03;;;;;;;;;;;12.10;99.90;;;;;;5092045;28;19930;-85
2023/06/01 01:45:29;;;;;;;;;;;12.00;99.90;;;;;;5098234;28;20032;-84
2023/06/01 01:47:58;;;;;;;;;;;12.20;99.90;;;;;;5091604;28;21481;-82
2023/06/01 01:50:26;;;;;;;;;;;12.20;99.90;;;;;;5090749;28;19934;-84
2023/06/01 01:52:53;;;;;;;;;;;12.10;99.90;;;;;;5093303;28;20374;-84
2023/06/01 01:55:23;;;;;;;;;;;12.20;99.90;;;;;;5093548;28;19933;-83
2023/06/01 01:57:50;;;;;;;;;;;12.20;99.90;;;;;;5094711;28;19927;-84
2023/06/01 02:00:15;;;;;;;;;;;12.20;99.90;;;;;;5088299;28;19928;-86
2023/06/01 02:02:41;;;;;;;;;;;12.10;99.90;;;;;;5093181;28;19931;-85
2023/06/01 02:05:07;;;;;;;;;;;12.20;99.90;;;;;;5094322;28;20473;-86
2023/06/01 02:07:34;;;;;;;;;;;12.20;99.90;;;;;;5096466;28;20408;-85
2023/06/01 02:10:00;;;;;;;;;;;12.10;99.90;;;;;;5079130;28;19928;-85
2023/06/01 02:12:25;;;;;;;;;;;12.10;99.90;;;;;;5098932;28;19934;-84
2023/06/01 02:14:51;;;;;;;;;;;12.10;99.90;;;;;;5097512;28;21984;-84
2023/06/01 02:17:16;;;;;;;;;;;12.00;99.90;;;;;;5100968;28;19927;-85
2023/06/01 02:19:43;;;;;;;;;;;12.10;99.90;;;;;;5097572;28;19946;-86
2023/06/01 02:22:08;;;;;;;;;;;12.10;99.90;;;;;;5099875;28;20381;-86
2023/06/01 02:24:34;;;;;;;;;;;12.00;99.90;;;;;;5102179;28;19934;-85
2023/06/01 02:27:00;;;;;;;;;;;12.20;99.90;;;;;;5098498;28;19928;-86
2023/06/01 02:29:26;;;;;;;;;;;12.00;99.90;;;;;;5081885;28;20011;-85
2023/06/01 02:31:52;;;;;;;;;;;12.00;99.90;;;;;;5070897;28;19932;-86
2023/06/01 02:34:18;;;;;;;;;;;11.90;99.90;;;;;;5099225;28;20375;-84
2023/06/01 02:36:44;;;;;;;;;;;12.00;99.90;;;;;;5101696;28;19928;-86
2023/06/01 02:39:09;;;;;;;;;;;12.00;99.90;;;;;;5095159;28;20444;-84
2023/06/01 02:41:35;;;;;;;;;;;12.10;99.90;;;;;;5084876;28;19927;-86
2023/06/01 02:44:00;;;;;;;;;;;11.90;99.90;;;;;;5095209;28;19928;-86
2023/06/01 02:46:26;;;;;;;;;;;12.00;99.90;;;;;;5097529;28;19928;-84
2023/06/01 02:48:52;;;;;;;;;;;11.90;99.90;;;;;;5077546;28;19993;-86
2023/06/01 02:51:18;;;;;;;;;;;12.00;99.90;;;;;;5100411;28;19928;-86
2023/06/01 02:53:45;;;;;;;;;;;11.90;99.90;;;;;;5099215;28;19928;-83
2023/06/01 02:56:10;;;;;;;;;;;11.90;99.90;;;;;;5093503;28;19924;-86
2023/06/01 02:58:36;;;;;;;;;;;11.90;99.90;;;;;;5077204;28;19928;-84
2023/06/01 03:01:01;;;;;;;;;;;12.00;99.90;;;;;;5090270;28;19993;-85
2023/06/01 03:03:27;;;;;;;;;;;11.80;99.90;;;;;;5098097;28;20025;-84
2023/06/01 03:05:53;;;;;;;;;;;11.70;99.90;;;;;;5095004;28;20494;-84
2023/06/01 03:08:19;;;;;;;;;;;11.80;99.90;;;;;;5096542;28;19924;-87
2023/06/01 03:10:45;;;;;;;;;;;11.90;99.90;;;;;;5099526;28;19928;-86
2023/06/01 03:13:10;;;;;;;;;;;11.80;99.90;;;;;;5097911;28;19963;-85
2023/06/01 03:15:37;;;;;;;;;;;11.90;99.90;;;;;;5097074;28;20392;-85
2023/06/01 03:18:03;;;;;;;;;;;11.90;99.90;;;;;;5096774;28;19931;-85
2023/06/01 03:20:28;;;;;;;;;;;11.90;99.90;;;;;;5097937;28;20327;-84
2023/06/01 03:22:54;;;;;;;;;;;11.90;99.90;;;;;;5095961;28;20519;-86
2023/06/01 03:25:20;;;;;;;;;;;11.90;99.90;;;;;;5094749;28;19924;-85
2023/06/01 03:27:46;;;;;;;;;;;11.90;99.90;;;;;;5092258;28;20342;-85
2023/06/01 03:30:11;;;;;;;;;;;12.00;99.90;;;;;;5091006;28;19928;-85
2023/06/01 03:32:37;;;;;;;;;;;11.90;99.90;;;;;;5094941;28;19997;-84
2023/06/01 03:35:03;;;;;;;;;;;11.90;99.90;;;;;;5098354;28;19950;-86
2023/06/01 03:37:29;;;;;;;;;;;11.80;99.90;;;;;;5097584;28;20018;-85
2023/06/01 03:39:55;;;;;;;;;;;11.80;99.90;;;;;;5079801;28;20019;-87
2023/06/01 03:42:20;;;;;;;;;;;11.80;99.90;;;;;;5097540;28;20021;-84
2023/06/01 03:44:46;;;;;;;;;;;11.90;99.90;;;;;;5090797;28;19928;-83
2023/06/01 03:47:13;;;;;;;;;;;11.80;99.90;;;;;;5096614;28;19932;-82
2023/06/01 03:49:39;;;;;;;;;;;11.80;99.90;;;;;;5093190;28;19932;-81
2023/06/01 03:52:05;;;;;;;;;;;11.80;99.90;;;;;;5095049;28;19997;-82
2023/06/01 03:54:30;;;;;;;;;;;11.80;99.90;;;;;;5097446;28;19927;-82
2023/06/01 03:56:57;;;;;;;;;;;11.90;99.90;;;;;;5099401;28;20345;-85
2023/06/01 03:59:22;;;;;;;;;;;11.80;99.90;;;;;;5095908;28;20028;-85
2023/06/01 04:01:48;;;;;;;;;;;11.80;99.90;;;;;;5073749;28;20013;-85
2023/06/01 04:04:16;;;;;;;;;;;11.90;99.90;;;;;;5097826;28;20304;-85
2023/06/01 04:06:45;;;;;;;;;;;11.70;99.90;;;;;;5095512;28;19932;-86
2023/06/01 04:09:11;;;;;;;;;;;11.70;99.90;;;;;;5101084;28;20579;-85
2023/06/01 04:11:38;;;;;;;;;;;11.80;99.90;;;;;;5096715;28;19928;-84
2023/06/01 04:14:04;;;;;;;;;;;11.70;99.90;;;;;;5099644;28;20367;-85
2023/06/01 04:16:29;;;;;;;;;;;11.80;99.90;;;;;;5093767;28;19977;-82
2023/06/01 04:18:55;;;;;;;;;;;11.70;99.90;;;;;;5092780;28;19927;-83
2023/06/01 04:21:21;;;;;;;;;;;11.80;99.90;;;;;;5095403;28;19936;-88
2023/06/01 04:23:46;;;;;;;;;;;11.80;99.90;;;;;;5095733;28;19940;-83
2023/06/01 04:26:12;;;;;;;;;;;11.70;99.90;;;;;;5097253;28;19927;-86
2023/06/01 04:28:43;;;;;;;;;;;11.80;99.90;;;;;;5075616;28;19967;-83
2023/06/01 04:31:18;;;;;;;;;;;11.80;99.90;;;;;;5091985;28;20387;-85
2023/06/01 04:33:44;;;;;;;;;;;11.80;99.90;;;;;;5095014;28;19935;-85
2023/06/01 04:36:11;;;;;;;;;;;11.90;99.90;;;;;;5097063;28;19923;-85
2023/06/01 04:38:40;;;;;;;;;;;12.00;99.90;;;;;;5092671;28;19924;-85
2023/06/01 04:41:07;;;;;;;;;;;11.90;99.90;;;;;;5089064;28;19928;-84
2023/06/01 04:43:32;;;;;;;;;;;11.90;99.90;;;;;;5094936;28;20420;-85
2023/06/01 04:46:03;;;;;;;;;;;12.00;99.90;;;;;;5094117;28;19924;-84
2023/06/01 04:48:30;;;;;;;;;;;11.90;99.90;;;;;;5091694;28;20389;-85
2023/06/01 04:50:57;;;;;;;;;;;11.80;99.90;;;;;;5090316;28;19928;-86
2023/06/01 04:53:23;;;;;;;;;;;12.00;99.90;;;;;;5093322;28;20320;-85
2023/06/01 04:55:48;;;;;;;;;;;11.90;99.90;;;;;;5094934;28;19973;-84
2023/06/01 04:58:14;;;;;;;;;;;12.00;99.90;;;;;;5092163;28;19981;-85
2023/06/01 05:00:39;;;;;;;;;;;11.90;99.90;;;;;;5088401;28;20430;-84
2023/06/01 05:03:08;;;;;;;;;;;11.90;99.90;;;;;;5088567;28;19974;-83
2023/06/01 05:05:34;;;;;;;;;;;11.90;99.90;;;;;;5088293;28;19931;-85
2023/06/01 05:07:59;;;;;;;;;;;12.00;99.90;;;;;;5090495;28;19928;-83
2023/06/01 05:10:25;;;;;;;;;;;11.90;99.90;;;;;;5094742;28;19938;-84
2023/06/01 05:12:51;;;;;;;;;;;12.00;99.90;;;;;;5090591;28;19928;-85
2023/06/01 05:15:16;;;;;;;;;;;11.90;99.90;;;;;;5089528;28;19978;-84
2023/06/01 05:17:42;;;;;;;;;;;11.90;99.90;;;;;;5093689;28;19939;-83
2023/06/01 05:20:08;;;;;;;;;;;11.90;99.90;;;;;;5089771;28;19928;-86
2023/06/01 05:22:35;;;;;;;;;;;11.90;99.90;;;;;;5077957;28;19924;-84
2023/06/01 05:25:01;;;;;;;;;;;11.80;99.90;;;;;;5092804;28;19927;-87
2023/06/01 05:27:27;;;;;;;;;;;11.80;99.90;;;;;;5080186;28;20376;-85
2023/06/01 05:29:52;;;;;;;;;;;11.90;99.90;;;;;;5089951;28;20019;-87
2023/06/01 05:32:18;;;;;;;;;;;11.90;99.90;;;;;;5092601;28;19962;-85
2023/06/01 05:34:43;;;;;;;;;;;11.90;99.90;;;;;;5093701;28;19928;-84
2023/06/01 05:37:09;;;;;;;;;;;12.00;99.90;;;;;;5088908;28;20282;-85
2023/06/01 05:39:34;;;;;;;;;;;11.90;99.90;;;;;;5096713;28;20324;-85
2023/06/01 05:42:00;;;;;;;;;;;11.90;99.90;;;;;;5096174;28;19968;-84
2023/06/01 05:44:26;;;;;;;;;;;12.00;99.90;;;;;;5084994;28;19993;-84
2023/06/01 05:46:52;;;;;;;;;;;12.10;99.90;;;;;;5101007;28;20034;-84
2023/06/01 05:49:18;;;;;;;;;;;12.10;99.90;;;;;;5102960;28;19981;-84
2023/06/01 05:51:46;;;;;;;;;;;12.30;99.90;;;;;;5105509;28;19927;-85
2023/06/01 05:54:11;;;;;;;;;;;12.10;99.90;;;;;;5083690;28;19927;-86
2023/06/01 05:56:37;;;;;;;;;;;12.20;99.90;;;;;;5101965;28;20304;-86
2023/06/01 05:59:03;;;;;;;;;;;12.10;99.90;;;;;;5102016;28;20408;-84
2023/06/01 06:01:28;;;;;;;;;;;12.20;99.90;;;;;;5099786;28;19932;-85
2023/06/01 06:03:55;;;;;;;;;;;12.20;99.90;;;;;;5101602;28;19978;-84
2023/06/01 06:06:22;;;;;;;;;;;12.10;99.90;;;;;;5103017;28;19924;-84
2023/06/01 06:08:47;;;;;;;;;;;12.30;99.90;;;;;;5099467;28;19928;-83
2023/06/01 06:11:13;;;;;;;;;;;12.10;99.90;;;;;;5103593;28;19931;-84
2023/06/01 06:13:39;;;;;;;;;;;12.10;99.90;;;;;;5102172;28;20426;-86
2023/06/01 06:16:04;;;;;;;;;;;12.30;99.90;;;;;;5103127;28;19928;-83
2023/06/01 06:18:30;;;;;;;;;;;12.20;99.90;;;;;;5100803;28;20331;-85
2023/06/01 06:20:55;;;;;;;;;;;12.30;99.90;;;;;;5101485;28;19927;-85
2023/06/01 06:23:21;;;;;;;;;;;12.30;99.90;;;;;;5091846;28;20379;-84
2023/06/01 06:25:48;;;;;;;;;;;12.30;99.90;;;;;;5098271;28;20365;-85
2023/06/01 06:28:14;;;;;;;;;;;12.30;99.90;;;;;;5106163;28;19924;-85
2023/06/01 06:30:39;;;;;;;;;;;12.40;99.90;;;;;;5102358;28;19927;-85
2023/06/01 06:33:05;;;;;;;;;;;12.30;99.90;;;;;;5102450;28;19931;-85
2023/06/01 06:35:30;;;;;;;;;;;12.50;99.90;;;;;;5104605;28;20501;-85
2023/06/01 06:37:56;;;;;;;;;;;12.50;99.90;;;;;;5101331;28;19932;-85
2023/06/01 06:40:22;;;;;;;;;;;12.40;99.90;;;;;;5105179;28;19981;-83
2023/06/01 06:42:49;;;;;;;;;;;12.50;99.90;;;;;;5104499;28;20010;-85
2023/06/01 06:45:14;;;;;;;;;;;12.40;99.90;;;;;;5108384;28;20018;-84
2023/06/01 06:47:41;;;;;;;;;;;12.30;99.90;;;;;;5105615;28;20345;-86
2023/06/01 06:50:07;;;;;;;;;;;12.40;99.90;;;;;;5105672;28;20509;-84
2023/06/01 06:52:33;;;;;;;;;;;12.40;99.90;;;;;;5105711;28;19935;-84
2023/06/01 06:54:58;;;;;;;;;;;12.50;99.90;;;;;;5101936;28;19932;-82
2023/06/01 06:57:24;;;;;;;;;;;12.40;99.90;;;;;;5104167;28;20018;-85
2023/06/01 06:59:49;;;;;;;;;;;12.40;99.90;;;;;;5101705;28;20071;-84
2023/06/01 07:02:15;;;;;;;;;;;12.50;99.90;;;;;;5102460;28;19927;-87
2023/06/01 07:04:41;;;;;;;;;;;12.60;99.90;;;;;;5101725;28;20419;-85
2023/06/01 07:07:07;;;;;;;;;;;12.50;99.90;;;;;;5100468;28;20015;-83
2023/06/01 07:09:33;;;;;;;;;;;12.60;99.90;;;;;;5100536;28;19942;-83
2023/06/01 07:11:58;;;;;;;;;;;12.70;99.90;;;;;;5101439;28;20323;-86
2023/06/01 07:14:24;;;;;;;;;;;12.80;99.90;;;;;;5094367;28;20341;-84
2023/06/01 07:16:50;;;;;;;;;;;12.70;99.90;;;;;;5102030;28;20285;-85
2023/06/01 07:19:16;;;;;;;;;;;12.50;99.90;;;;;;5099687;28;20369;-85
2023/06/01 07:21:42;;;;;;;;;;;12.60;99.90;;;;;;5078931;28;19931;-85
2023/06/01 07:24:10;;;;;;;;;;;13.00;99.90;;;;;;5098573;28;19927;-83
2023/06/01 07:26:36;;;;;;;;;;;13.20;99.90;;;;;;5100555;28;19934;-85
2023/06/01 07:29:01;;;;;;;;;;;13.30;99.90;;;;;;5098700;28;19979;-87
2023/06/01 07:31:27;;;;;;;;;;;13.40;99.90;;;;;;5101944;28;19935;-87
2023/06/01 07:33:55;;;;;;;;;;;13.30;99.90;;;;;;5094938;28;19928;-83
2023/06/01 07:36:23;;;;;;;;;;;13.50;99.90;;;;;;5093324;28;19932;-86
2023/06/01 07:38:49;;;;;;;;;;;13.70;99.90;;;;;;5074281;28;19927;-85
2023/06/01 07:41:14;;;;;;;;;;;13.80;99.90;;;;;;5089844;28;20277;-85
2023/06/01 07:43:40;;;;;;;;;;;13.80;99.90;;;;;;5091901;28;19930;-84
2023/06/01 07:46:05;;;;;;;;;;;13.70;99.90;;;;;;5090125;28;19964;-84
2023/06/01 07:48:35;;;;;;;;;;;13.90;99.90;;;;;;5085490;28;19932;-84
2023/06/01 07:51:02;;;;;;;;;;;13.70;99.90;;;;;;5090232;28;19932;-86
2023/06/01 07:53:27;;;;;;;;;;;13.60;99.90;;;;;;5079113;28;19974;-86
2023/06/01 07:55:53;;;;;;;;;;;13.60;99.90;;;;;;5092398;28;19939;-87
2023/06/01 07:58:18;;;;;;;;;;;13.70;99.90;;;;;;5078048;28;19963;-84
2023/06/01 08:00:44;;;;;;;;;;;13.60;99.90;;;;;;5089463;28;19924;-83
2023/06/01 08:03:10;;;;;;;;;;;13.50;99.90;;;;;;5081800;28;19996;-86
2023/06/01 08:05:36;;;;;;;;;;;13.60;99.90;;;;;;5086579;28;20059;-85
2023/06/01 08:08:02;;;;;;;;;;;13.70;99.90;;;;;;5090033;28;19928;-84
2023/06/01 08:10:27;;;;;;;;;;;13.70;99.90;;;;;;5082739;28;20393;-87
2023/06/01 08:12:55;;;;;;;;;;;13.60;99.90;;;;;;5097065;28;19936;-84
2023/06/01 08:15:25;;;;;;;;;;;13.70;99.90;;;;;;5100289;28;19927;-86
2023/06/01 08:17:51;;;;;;;;;;;13.80;99.90;;;;;;5099606;28;20069;-85
2023/06/01 08:20:21;;;;;;;;;;;13.40;99.90;;;;;;5100054;28;20444;-85
2023/06/01 08:22:47;;;;;;;;;;;13.90;99.90;;;;;;5098727;28;19931;-86
2023/06/01 08:25:14;;;;;;;;;;;13.80;99.90;;;;;;5101286;28;20014;-85
2023/06/01 08:27:43;;;;;;;;;;;14.00;99.90;;;;;;5097762;28;19935;-83
2023/06/01 08:30:09;;;;;;;;;;;14.50;99.90;;;;;;5084757;28;19927;-84
2023/06/01 08:32:34;;;;;;;;;;;14.30;99.90;;;;;;5100630;28;19927;-85
2023/06/01 08:35:00;;;;;;;;;;;14.40;99.90;;;;;;5099050;28;20285;-86
2023/06/01 08:37:26;;;;;;;;;;;14.40;99.90;;;;;;5099917;28;19935;-88
2023/06/01 08:39:51;;;;;;;;;;;14.10;99.90;;;;;;5081815;28;19931;-85
2023/06/01 08:42:23;;;;;;;;;;;14.10;99.90;;;;;;5098772;28;19928;-85
2023/06/01 08:44:52;;;;;;;;;;;14.00;99.90;;;;;;5100147;28;20381;-85
2023/06/01 08:47:18;;;;;;;;;;;14.20;99.90;;;;;;5100344;28;19927;-85
2023/06/01 08:49:44;;;;;;;;;;;14.20;99.90;;;;;;5100245;28;20335;-87
2023/06/01 08:52:13;;;;;;;;;;;13.90;99.90;;;;;;5102249;28;20293;-86
2023/06/01 08:54:39;;;;;;;;;;;14.10;99.90;;;;;;5099447;28;20421;-87
2023/06/01 08:57:07;;;;;;;;;;;13.80;99.90;;;;;;5082694;28;19927;-85
2023/06/01 08:59:33;;;;;;;;;;;14.10;99.90;;;;;;5101608;28;19963;-84
2023/06/01 09:01:59;;;;;;;;;;;14.30;99.90;;;;;;5097854;28;19928;-86
2023/06/01 09:04:26;;;;;;;;;;;14.30;99.90;;;;;;5101187;28;19978;-84
2023/06/01 09:06:51;;;;;;;;;;;14.70;99.90;;;;;;5096821;28;19984;-86
2023/06/01 09:09:17;;;;;;;;;;;14.90;99.90;;;;;;5100610;28;20449;-86
2023/06/01 09:11:44;;;;;;;;;;;14.80;99.90;;;;;;5094259;28;20034;-86
2023/06/01 09:14:22;;;;;;;;;;;14.80;99.90;;;;;;5098780;28;19980;-86
2023/06/01 09:16:48;;;;;;;;;;;15.00;99.90;;;;;;5094747;28;19942;-86
2023/06/01 09:19:14;;;;;;;;;;;14.90;99.90;;;;;;5098748;28;19923;-85
2023/06/01 09:21:40;;;;;;;;;;;14.90;99.90;;;;;;5098888;28;19975;-86
2023/06/01 09:24:24;;;;;;;;;;;14.70;99.90;;;;;;5080174;28;19932;-85
2023/06/01 09:26:49;;;;;;;;;;;14.90;99.90;;;;;;5097190;28;20022;-84
2023/06/01 09:29:15;;;;;;;;;;;15.10;99.90;;;;;;5078939;28;20432;-85
2023/06/01 09:31:44;;;;;;;;;;;15.00;99.90;;;;;;5099191;28;19930;-86
2023/06/01 09:34:11;;;;;;;;;;;15.20;99.90;;;;;;5098800;28;19930;-83
2023/06/01 09:36:37;;;;;;;;;;;15.30;99.90;;;;;;5100192;28;19981;-87
2023/06/01 09:39:09;;;;;;;;;;;15.00;99.90;;;;;;5095800;28;20503;-86
2023/06/01 09:41:47;;;;;;;;;;;15.40;99.90;;;;;;5099462;28;19959;-87
2023/06/01 09:44:13;;;;;;;;;;;15.40;99.90;;;;;;5081639;28;20022;-86
2023/06/01 09:46:46;;;;;;;;;;;15.50;99.90;;;;;;5100104;28;19927;-83
2023/06/01 09:49:17;;;;;;;;;;;15.30;99.90;;;;;;5097355;28;19939;-86
2023/06/01 09:51:43;;;;;;;;;;;15.30;99.90;;;;;;5098204;28;19984;-86
2023/06/01 09:54:08;;;;;;;;;;;15.30;99.90;;;;;;5102216;28;20022;-86
2023/06/01 09:56:42;;;;;;;;;;;15.30;99.90;;;;;;5098380;28;20273;-85
2023/06/01 09:59:08;;;;;;;;;;;15.00;99.90;;;;;;5095932;28;19934;-87
2023/06/01 10:01:33;;;;;;;;;;;14.90;99.90;;;;;;5096456;28;19927;-85
2023/06/01 10:04:00;;;;;;;;;;;15.10;99.90;;;;;;5097937;28;19924;-87
2023/06/01 10:06:28;;;;;;;;;;;15.30;99.90;;;;;;5095982;28;19931;-86
2023/06/01 10:08:54;;;;;;;;;;;15.20;99.90;;;;;;5096330;28;19985;-86
2023/06/01 10:11:19;;;;;;;;;;;15.20;99.90;;;;;;5078589;28;19924;-86
2023/06/01 10:13:45;;;;;;;;;;;15.50;99.90;;;;;;5098859;28;19977;-84
2023/06/01 10:16:12;;;;;;;;;;;15.30;99.90;;;;;;5095081;28;19927;-85
2023/06/01 10:18:38;;;;;;;;;;;15.40;99.90;;;;;;5081032;28;19924;-88
2023/06/01 10:21:06;;;;;;;;;;;15.30;99.90;;;;;;5080590;28;19928;-86
2023/06/01 10:23:31;;;;;;;;;;;15.40;99.90;;;;;;5099338;28;19927;-86
2023/06/01 10:25:58;;;;;;;;;;;15.40;99.90;;;;;;5097113;28;20538;-87
2023/06/01 10:28:25;;;;;;;;;;;15.00;99.90;;;;;;5095089;28;19928;-86
2023/06/01 10:31:10;;;;;;;;;;;15.10;99.90;;;;;;5097192;28;20438;-85
2023/06/01 10:33:55;;;;;;;;;;;15.20;99.90;;;;;;5084150;28;19935;-86
2023/06/01 10:36:21;;;;;;;;;;;15.10;99.90;;;;;;5101306;28;19961;-88
2023/06/01 10:38:46;;;;;;;;;;;15.30;99.90;;;;;;5098928;28;19924;-87
2023/06/01 10:41:28;;;;;;;;;;;15.30;99.90;;;;;;5105200;28;20036;-87
2023/06/01 10:43:54;;;;;;;;;;;15.40;99.90;;;;;;5102456;28;19928;-86
2023/06/01 10:46:36;;;;;;;;;;;15.40;99.90;;;;;;5103663;28;20254;-87
2023/06/01 10:49:02;;;;;;;;;;;15.20;99.90;;;;;;5098578;28;20028;-85
2023/06/01 10:51:28;;;;;;;;;;;15.20;99.90;;;;;;5101065;28;19931;-87
2023/06/01 10:53:54;;;;;;;;;;;15.30;99.90;;;;;;5101547;28;20289;-87
2023/06/01 10:56:24;;;;;;;;;;;15.30;99.90;;;;;;5100812;28;19927;-85
2023/06/01 10:59:08;;;;;;;;;;;15.20;99.90;;;;;;5101892;28;19935;-88
2023/06/01 11:01:35;;;;;;;;;;;15.10;99.90;;;;;;5100284;28;19928;-86
2023/06/01 11:04:00;;;;;;;;;;;15.10;99.90;;;;;;5101730;28;19934;-85
2023/06/01 11:06:31;;;;;;;;;;;15.00;99.90;;;;;;5098195;28;19924;-85
2023/06/01 11:09:00;;;;;;;;;;;15.20;99.90;;;;;;5085389;28;19924;-86
2023/06/01 11:11:45;;;;;;;;;;;15.40;99.90;;;;;;5104014;28;20405;-87
2023/06/01 11:14:11;;;;;;;;;;;15.60;99.90;;;;;;5098975;28;19924;-86
2023/06/01 11:16:37;;;;;;;;;;;15.50;99.90;;;;;;5086046;28;20400;-86
2023/06/01 11:19:03;;;;;;;;;;;15.40;99.90;;;;;;5097060;28;19935;-86
2023/06/01 11:21:34;;;;;;;;;;;15.10;99.90;;;;;;5103255;28;19928;-86
2023/06/01 11:24:03;;;;;;;;;;;15.10;99.90;;;;;;5101295;28;19932;-86
2023/06/01 11:26:34;;;;;;;;;;;15.20;99.90;;;;;;5087365;28;19927;-87
2023/06/01 11:29:06;;;;;;;;;;;15.10;99.90;;;;;;5097518;28;20006;-87
2023/06/01 11:31:45;;;;;;;;;;;15.20;99.90;;;;;;5101679;28;19976;-85
2023/06/01 11:34:12;;;;;;;;;;;15.30;99.90;;;;;;5099447;28;19934;-86
2023/06/01 11:36:38;;;;;;;;;;;15.00;99.90;;;;;;5102226;28;19931;-86
2023/06/01 11:39:07;;;;;;;;;;;15.10;99.90;;;;;;5101939;28;19986;-90
2023/06/01 11:41:33;;;;;;;;;;;14.90;99.90;;;;;;5087464;28;19928;-88
2023/06/01 11:43:59;;;;;;;;;;;15.10;99.90;;;;;;5082124;28;20396;-88
2023/06/01 11:46:26;;;;;;;;;;;15.20;99.90;;;;;;5101550;28;19993;-88
2023/06/01 11:49:02;;;;;;;;;;;15.10;99.90;;;;;;5084235;28;20673;-86
2023/06/01 11:51:28;;;;;;;;;;;15.40;99.90;;;;;;5102634;28;19927;-87
2023/06/01 11:53:55;;;;;;;;;;;15.50;99.90;;;;;;5086549;28;20365;-87
2023/06/01 11:56:27;;;;;;;;;;;15.60;99.90;;;;;;5102678;28;20524;-88
2023/06/01 11:58:56;;;;;;;;;;;15.70;99.90;;;;;;5083444;28;20288;-88
2023/06/01 12:01:22;;;;;;;;;;;15.80;99.90;;;;;;5105111;28;19936;-88
2023/06/01 12:03:50;;;;;;;;;;;15.80;99.90;;;;;;5100500;28;20403;-86
2023/06/01 12:06:23;;;;;;;;;;;15.40;99.90;;;;;;5101467;28;19928;-88
2023/06/01 12:08:50;;;;;;;;;;;15.20;99.90;;;;;;5100254;28;19935;-88
2023/06/01 12:11:18;;;;;;;;;;;15.10;99.90;;;;;;5100922;28;20461;-88
2023/06/01 12:13:44;;;;;;;;;;;15.40;99.90;;;;;;5085068;28;19923;-89
2023/06/01 12:16:09;;;;;;;;;;;15.80;99.90;;;;;;5082698;28;20019;-88
2023/06/01 12:18:35;;;;;;;;;;;15.80;99.90;;;;;;5098951;28;20337;-91
2023/06/01 12:21:08;;;;;;;;;;;15.60;99.90;;;;;;5099875;28;19932;-90
2023/06/01 12:23:33;;;;;;;;;;;15.30;99.90;;;;;;5103002;28;19935;-85
2023/06/01 12:25:59;;;;;;;;;;;15.60;99.90;;;;;;5096585;28;19951;-87
2023/06/01 12:28:35;;;;;;;;;;;15.50;99.90;;;;;;5098745;28;19924;-86
2023/06/01 12:31:07;;;;;;;;;;;15.60;99.90;;;;;;5093643;28;19935;-89
2023/06/01 12:33:37;;;;;;;;;;;16.10;99.90;;;;;;5101200;28;20304;-89
2023/06/01 12:36:03;;;;;;;;;;;16.20;99.90;;;;;;5101659;28;19974;-88
2023/06/01 12:38:34;;;;;;;;;;;16.50;99.90;;;;;;5079351;28;20027;-86
2023/06/01 12:41:11;;;;;;;;;;;16.40;99.90;;;;;;5080864;28;19928;-86
2023/06/01 12:43:37;;;;;;;;;;;16.40;99.90;;;;;;5102706;28;19928;-86
2023/06/01 12:46:05;;;;;;;;;;;16.60;99.90;;;;;;5102963;28;19932;-87
2023/06/01 12:48:37;;;;;;;;;;;16.50;99.90;;;;;;5083363;28;19934;-88
2023/06/01 12:51:03;;;;;;;;;;;17.30;99.90;;;;;;5101053;28;19927;-86
2023/06/01 12:53:29;;;;;;;;;;;17.50;99.90;;;;;;5101432;28;19928;-84
2023/06/01 12:55:55;;;;;;;;;;;17.30;99.90;;;;;;5099645;28;20423;-87
2023/06/01 12:58:21;;;;;;;;;;;17.40;99.90;;;;;;5097444;28;19924;-85
2023/06/01 13:00:46;;;;;;;;;;;17.40;99.90;;;;;;5096904;28;19928;-88
2023/06/01 13:03:13;;;;;;;;;;;17.10;99.90;;;;;;5079463;28;20619;-89
2023/06/01 13:05:41;;;;;;;;;;;16.70;99.90;;;;;;5096438;28;19927;-88
2023/06/01 13:08:06;;;;;;;;;;;16.90;99.90;;;;;;5098584;28;19988;-87
2023/06/01 13:10:32;;;;;;;;;;;17.40;99.90;;;;;;5084118;28;20572;-89
2023/06/01 13:12:57;;;;;;;;;;;17.30;99.90;;;;;;5092039;28;20286;-87
2023/06/01 13:15:23;;;;;;;;;;;17.40;99.90;;;;;;5082642;28;19950;-88
2023/06/01 13:17:48;;;;;;;;;;;17.50;99.90;;;;;;5098499;28;20303;-86
2023/06/01 13:20:16;;;;;;;;;;;17.60;99.90;;;;;;5096668;28;19934;-85
2023/06/01 13:22:44;;;;;;;;;;;17.40;99.90;;;;;;5093057;28;19931;-87
2023/06/01 13:25:09;;;;;;;;;;;17.30;99.90;;;;;;5083300;28;19927;-87
2023/06/01 13:27:35;;;;;;;;;;;17.20;99.90;;;;;;5094782;28;20046;-88
2023/06/01 13:30:04;;;;;;;;;;;17.00;99.90;;;;;;5083113;28;19970;-86
2023/06/01 13:32:29;;;;;;;;;;;16.90;99.90;;;;;;5090112;28;20007;-86
2023/06/01 13:34:56;;;;;;;;;;;17.00;99.90;;;;;;5099166;28;20014;-87
2023/06/01 13:37:22;;;;;;;;;;;16.50;99.90;;;;;;5078389;28;19954;-86
2023/06/01 13:39:47;;;;;;;;;;;16.60;99.90;;;;;;5097015;28;19931;-87
2023/06/01 13:42:13;;;;;;;;;;;16.30;99.90;;;;;;5097774;28;19928;-89
2023/06/01 13:44:38;;;;;;;;;;;16.70;99.90;;;;;;5100443;28;20001;-83
2023/06/01 13:47:04;;;;;;;;;;;17.20;99.90;;;;;;5077936;28;20282;-86
2023/06/01 13:49:30;;;;;;;;;;;17.30;99.90;;;;;;5096869;28;19928;-87
2023/06/01 13:51:56;;;;;;;;;;;17.30;99.90;;;;;;5092853;28;19923;-88
2023/06/01 13:54:22;;;;;;;;;;;17.30;99.90;;;;;;5099736;28;20002;-87
2023/06/01 13:56:47;;;;;;;;;;;17.10;99.90;;;;;;5095363;28;19988;-88
2023/06/01 13:59:13;;;;;;;;;;;17.20;99.90;;;;;;5098048;28;19934;-86
2023/06/01 14:01:38;;;;;;;;;;;17.70;99.90;;;;;;5077016;28;20389;-87
2023/06/01 14:04:04;;;;;;;;;;;17.70;99.90;;;;;;5082542;28;19928;-87
2023/06/01 14:06:30;;;;;;;;;;;18.30;99.90;;;;;;5099559;28;19927;-87
2023/06/01 14:08:55;;;;;;;;;;;17.90;99.90;;;;;;5100884;28;20422;-86
2023/06/01 14:11:21;;;;;;;;;;;17.90;99.90;;;;;;5084587;28;19933;-88
2023/06/01 14:13:47;;;;;;;;;;;17.50;99.90;;;;;;5095548;28;20023;-87
2023/06/01 14:16:12;;;;;;;;;;;17.50;99.90;;;;;;5100614;28;19928;-86